sensor_id;sensor_type;location;lat;lon;timestamp;P1;durP1;ratioP1;P2;durP2;ratioP2
13943;SDS011;7044;53.286;8.534;2023-04-03T00:00:29;4.27;;;1.50;;
13943;SDS011;7044;53.286;8.534;2023-04-03T00:02:56;1.80;;;1.20;;
13943;SDS011;7044;53.286;8.534;2023-04-03T00:05:23;2.53;;;1.40;;
13943;SDS011;7044;53.286;8.534;2023-04-03T00:07:50;4.93;;;1.50;;
13943;SDS011;7044;53.286;8.534;2023-04-03T00:10:19;3.10;;;1.00;;
13943;SDS011;7044;53.286;8.534;2023-04-03T00:12:46;3.00;;;1.30;;
13943;SDS011;7044;53.286;8.534;2023-04-03T00:15:13;4.07;;;1.43;;
13943;SDS011;7044;53.286;8.534;2023-04-03T00:17:40;3.93;;;1.40;;
13943;SDS011;7044;53.286;8.534;2023-04-03T00:20:08;3.13;;;1.27;;
13943;SDS011;7044;53.286;8.534;2023-04-03T00:22:35;2.40;;;1.43;;
13943;SDS011;7044;53.286;8.534;2023-04-03T00:25:02;4.07;;;1.33;;
13943;SDS011;7044;53.286;8.534;2023-04-03T00:27:30;3.17;;;1.43;;
13943;SDS011;7044;53.286;8.534;2023-04-03T00:29:57;7.50;;;2.07;;
13943;SDS011;7044;53.286;8.534;2023-04-03T00:32:24;1.87;;;1.47;;
13943;SDS011;7044;53.286;8.534;2023-04-03T00:34:51;4.67;;;1.50;;
13943;SDS011;7044;53.286;8.534;2023-04-03T00:37:17;8.40;;;2.50;;
13943;SDS011;7044;53.286;8.534;2023-04-03T00:39:44;5.77;;;2.10;;
13943;SDS011;7044;53.286;8.534;2023-04-03T00:42:11;4.17;;;1.60;;
13943;SDS011;7044;53.286;8.534;2023-04-03T00:47:43;5.77;;;1.90;;
13943;SDS011;7044;53.286;8.534;2023-04-03T00:50:10;6.93;;;2.10;;
13943;SDS011;7044;53.286;8.534;2023-04-03T00:52:37;7.47;;;2.20;;
13943;SDS011;7044;53.286;8.534;2023-04-03T00:55:06;3.80;;;1.87;;
13943;SDS011;7044;53.286;8.534;2023-04-03T00:57:35;3.77;;;1.43;;
13943;SDS011;7044;53.286;8.534;2023-04-03T01:00:04;3.67;;;1.40;;
13943;SDS011;7044;53.286;8.534;2023-04-03T01:02:35;2.77;;;1.40;;
13943;SDS011;7044;53.286;8.534;2023-04-03T01:05:03;2.23;;;1.27;;
13943;SDS011;7044;53.286;8.534;2023-04-03T01:07:31;1.73;;;1.43;;
13943;SDS011;7044;53.286;8.534;2023-04-03T01:10:01;5.40;;;1.60;;
13943;SDS011;7044;53.286;8.534;2023-04-03T01:12:31;3.43;;;1.50;;
13943;SDS011;7044;53.286;8.534;2023-04-03T01:15:00;4.20;;;1.30;;
13943;SDS011;7044;53.286;8.534;2023-04-03T01:17:31;2.57;;;1.43;;
13943;SDS011;7044;53.286;8.534;2023-04-03T01:22:59;6.47;;;1.30;;
13943;SDS011;7044;53.286;8.534;2023-04-03T01:25:33;3.73;;;1.30;;
13943;SDS011;7044;53.286;8.534;2023-04-03T01:28:00;3.10;;;1.60;;
13943;SDS011;7044;53.286;8.534;2023-04-03T01:30:28;4.13;;;1.33;;
13943;SDS011;7044;53.286;8.534;2023-04-03T01:32:59;5.13;;;1.40;;
13943;SDS011;7044;53.286;8.534;2023-04-03T01:35:26;5.80;;;1.50;;
13943;SDS011;7044;53.286;8.534;2023-04-03T01:37:53;3.37;;;1.40;;
13943;SDS011;7044;53.286;8.534;2023-04-03T01:40:19;4.03;;;1.40;;
13943;SDS011;7044;53.286;8.534;2023-04-03T01:42:46;3.33;;;1.40;;
13943;SDS011;7044;53.286;8.534;2023-04-03T01:45:13;3.03;;;1.20;;
13943;SDS011;7044;53.286;8.534;2023-04-03T01:47:40;6.10;;;1.53;;
13943;SDS011;7044;53.286;8.534;2023-04-03T01:50:08;3.87;;;1.60;;
13943;SDS011;7044;53.286;8.534;2023-04-03T01:52:35;7.23;;;1.87;;
13943;SDS011;7044;53.286;8.534;2023-04-03T01:55:03;6.67;;;1.87;;
13943;SDS011;7044;53.286;8.534;2023-04-03T01:57:30;3.40;;;1.83;;
13943;SDS011;7044;53.286;8.534;2023-04-03T01:59:57;2.43;;;1.40;;
13943;SDS011;7044;53.286;8.534;2023-04-03T02:02:24;3.70;;;1.57;;
13943;SDS011;7044;53.286;8.534;2023-04-03T02:04:50;2.23;;;1.47;;
13943;SDS011;7044;53.286;8.534;2023-04-03T02:07:18;2.97;;;1.33;;
13943;SDS011;7044;53.286;8.534;2023-04-03T02:09:45;2.13;;;1.47;;
13943;SDS011;7044;53.286;8.534;2023-04-03T02:12:12;9.03;;;1.73;;
13943;SDS011;7044;53.286;8.534;2023-04-03T02:14:39;6.70;;;1.90;;
13943;SDS011;7044;53.286;8.534;2023-04-03T02:17:05;4.60;;;1.70;;
13943;SDS011;7044;53.286;8.534;2023-04-03T02:19:33;6.00;;;1.97;;
13943;SDS011;7044;53.286;8.534;2023-04-03T02:22:01;4.80;;;1.50;;
13943;SDS011;7044;53.286;8.534;2023-04-03T02:24:29;1.30;;;1.20;;
13943;SDS011;7044;53.286;8.534;2023-04-03T02:26:56;2.77;;;1.43;;
13943;SDS011;7044;53.286;8.534;2023-04-03T02:29:23;4.67;;;1.70;;
13943;SDS011;7044;53.286;8.534;2023-04-03T02:31:50;4.20;;;1.63;;
13943;SDS011;7044;53.286;8.534;2023-04-03T02:34:17;5.90;;;1.77;;
13943;SDS011;7044;53.286;8.534;2023-04-03T02:36:44;3.73;;;1.40;;
13943;SDS011;7044;53.286;8.534;2023-04-03T02:39:11;2.17;;;1.30;;
13943;SDS011;7044;53.286;8.534;2023-04-03T02:41:39;3.43;;;1.57;;
13943;SDS011;7044;53.286;8.534;2023-04-03T02:44:06;3.50;;;1.73;;
13943;SDS011;7044;53.286;8.534;2023-04-03T02:46:35;3.33;;;1.60;;
13943;SDS011;7044;53.286;8.534;2023-04-03T02:49:02;6.37;;;1.87;;
13943;SDS011;7044;53.286;8.534;2023-04-03T02:51:29;7.93;;;1.80;;
13943;SDS011;7044;53.286;8.534;2023-04-03T02:53:56;2.90;;;1.43;;
13943;SDS011;7044;53.286;8.534;2023-04-03T02:56:23;5.73;;;1.63;;
13943;SDS011;7044;53.286;8.534;2023-04-03T02:58:53;5.03;;;2.23;;
13943;SDS011;7044;53.286;8.534;2023-04-03T03:01:19;6.70;;;2.20;;
13943;SDS011;7044;53.286;8.534;2023-04-03T03:03:46;3.10;;;1.60;;
13943;SDS011;7044;53.286;8.534;2023-04-03T03:06:14;3.10;;;2.10;;
13943;SDS011;7044;53.286;8.534;2023-04-03T03:08:42;1.60;;;1.27;;
13943;SDS011;7044;53.286;8.534;2023-04-03T03:11:09;2.87;;;1.70;;
13943;SDS011;7044;53.286;8.534;2023-04-03T03:13:36;8.10;;;1.67;;
13943;SDS011;7044;53.286;8.534;2023-04-03T03:16:05;5.53;;;1.73;;
13943;SDS011;7044;53.286;8.534;2023-04-03T03:18:32;4.40;;;1.70;;
13943;SDS011;7044;53.286;8.534;2023-04-03T03:21:00;3.77;;;1.60;;
13943;SDS011;7044;53.286;8.534;2023-04-03T03:23:28;10.90;;;2.03;;
13943;SDS011;7044;53.286;8.534;2023-04-03T03:25:57;3.60;;;2.10;;
13943;SDS011;7044;53.286;8.534;2023-04-03T03:28:25;2.97;;;2.07;;
13943;SDS011;7044;53.286;8.534;2023-04-03T03:30:52;9.70;;;1.87;;
13943;SDS011;7044;53.286;8.534;2023-04-03T03:33:20;3.03;;;1.70;;
13943;SDS011;7044;53.286;8.534;2023-04-03T03:35:47;6.33;;;1.90;;
13943;SDS011;7044;53.286;8.534;2023-04-03T03:38:14;2.37;;;1.50;;
13943;SDS011;7044;53.286;8.534;2023-04-03T03:40:41;2.77;;;1.57;;
13943;SDS011;7044;53.286;8.534;2023-04-03T03:43:08;4.40;;;1.67;;
13943;SDS011;7044;53.286;8.534;2023-04-03T03:45:35;5.37;;;1.70;;
13943;SDS011;7044;53.286;8.534;2023-04-03T03:48:02;3.23;;;1.57;;
13943;SDS011;7044;53.286;8.534;2023-04-03T03:50:30;5.70;;;2.20;;
13943;SDS011;7044;53.286;8.534;2023-04-03T03:52:57;6.23;;;2.10;;
13943;SDS011;7044;53.286;8.534;2023-04-03T03:55:24;3.57;;;1.73;;
13943;SDS011;7044;53.286;8.534;2023-04-03T03:57:51;7.17;;;2.13;;
13943;SDS011;7044;53.286;8.534;2023-04-03T04:00:18;4.77;;;2.10;;
13943;SDS011;7044;53.286;8.534;2023-04-03T04:02:45;6.53;;;2.00;;
13943;SDS011;7044;53.286;8.534;2023-04-03T04:05:12;5.93;;;1.80;;
13943;SDS011;7044;53.286;8.534;2023-04-03T04:07:40;2.10;;;1.40;;
13943;SDS011;7044;53.286;8.534;2023-04-03T04:10:07;6.03;;;2.10;;
13943;SDS011;7044;53.286;8.534;2023-04-03T04:12:34;9.30;;;2.13;;
13943;SDS011;7044;53.286;8.534;2023-04-03T04:15:02;7.33;;;2.43;;
13943;SDS011;7044;53.286;8.534;2023-04-03T04:17:29;8.87;;;2.37;;
13943;SDS011;7044;53.286;8.534;2023-04-03T04:19:56;5.27;;;1.70;;
13943;SDS011;7044;53.286;8.534;2023-04-03T04:22:23;5.93;;;2.17;;
13943;SDS011;7044;53.286;8.534;2023-04-03T04:24:51;9.53;;;2.67;;
13943;SDS011;7044;53.286;8.534;2023-04-03T04:27:18;3.20;;;2.10;;
13943;SDS011;7044;53.286;8.534;2023-04-03T04:29:45;6.30;;;2.10;;
13943;SDS011;7044;53.286;8.534;2023-04-03T04:32:12;6.73;;;2.57;;
13943;SDS011;7044;53.286;8.534;2023-04-03T04:34:39;7.17;;;2.50;;
13943;SDS011;7044;53.286;8.534;2023-04-03T04:37:05;5.37;;;2.17;;
13943;SDS011;7044;53.286;8.534;2023-04-03T04:39:33;3.83;;;2.20;;
13943;SDS011;7044;53.286;8.534;2023-04-03T04:42:02;6.30;;;2.50;;
13943;SDS011;7044;53.286;8.534;2023-04-03T04:44:29;7.07;;;2.40;;
13943;SDS011;7044;53.286;8.534;2023-04-03T04:46:55;4.90;;;2.13;;
13943;SDS011;7044;53.286;8.534;2023-04-03T04:49:22;7.03;;;2.47;;
13943;SDS011;7044;53.286;8.534;2023-04-03T04:51:49;6.70;;;2.60;;
13943;SDS011;7044;53.286;8.534;2023-04-03T04:54:16;4.13;;;2.50;;
13943;SDS011;7044;53.286;8.534;2023-04-03T04:56:43;3.57;;;2.27;;
13943;SDS011;7044;53.286;8.534;2023-04-03T04:59:11;3.77;;;2.30;;
13943;SDS011;7044;53.286;8.534;2023-04-03T05:01:38;3.47;;;1.83;;
13943;SDS011;7044;53.286;8.534;2023-04-03T05:04:05;3.83;;;2.40;;
13943;SDS011;7044;53.286;8.534;2023-04-03T05:06:32;6.53;;;2.33;;
13943;SDS011;7044;53.286;8.534;2023-04-03T05:09:00;4.57;;;2.37;;
13943;SDS011;7044;53.286;8.534;2023-04-03T05:11:27;6.77;;;2.60;;
13943;SDS011;7044;53.286;8.534;2023-04-03T05:13:54;3.27;;;2.30;;
13943;SDS011;7044;53.286;8.534;2023-04-03T05:16:22;4.70;;;2.43;;
13943;SDS011;7044;53.286;8.534;2023-04-03T05:18:49;5.87;;;2.63;;
13943;SDS011;7044;53.286;8.534;2023-04-03T05:21:15;6.37;;;2.53;;
13943;SDS011;7044;53.286;8.534;2023-04-03T05:23:43;3.30;;;2.47;;
13943;SDS011;7044;53.286;8.534;2023-04-03T05:26:10;4.97;;;2.93;;
13943;SDS011;7044;53.286;8.534;2023-04-03T05:28:37;3.27;;;2.20;;
13943;SDS011;7044;53.286;8.534;2023-04-03T05:31:04;4.53;;;2.13;;
13943;SDS011;7044;53.286;8.534;2023-04-03T05:33:32;6.73;;;2.47;;
13943;SDS011;7044;53.286;8.534;2023-04-03T05:36:01;3.90;;;2.53;;
13943;SDS011;7044;53.286;8.534;2023-04-03T05:38:29;6.90;;;2.47;;
13943;SDS011;7044;53.286;8.534;2023-04-03T05:40:56;7.83;;;2.37;;
13943;SDS011;7044;53.286;8.534;2023-04-03T05:43:23;6.40;;;2.70;;
13943;SDS011;7044;53.286;8.534;2023-04-03T05:45:50;5.20;;;2.47;;
13943;SDS011;7044;53.286;8.534;2023-04-03T05:48:17;5.63;;;2.50;;
13943;SDS011;7044;53.286;8.534;2023-04-03T05:50:46;4.17;;;2.20;;
13943;SDS011;7044;53.286;8.534;2023-04-03T05:53:14;4.30;;;2.63;;
13943;SDS011;7044;53.286;8.534;2023-04-03T05:55:44;6.10;;;2.20;;
13943;SDS011;7044;53.286;8.534;2023-04-03T05:58:11;3.57;;;2.10;;
13943;SDS011;7044;53.286;8.534;2023-04-03T06:00:38;4.87;;;2.40;;
13943;SDS011;7044;53.286;8.534;2023-04-03T06:03:05;3.80;;;2.00;;
13943;SDS011;7044;53.286;8.534;2023-04-03T06:05:32;5.00;;;2.17;;
13943;SDS011;7044;53.286;8.534;2023-04-03T06:08:01;4.73;;;2.23;;
13943;SDS011;7044;53.286;8.534;2023-04-03T06:10:29;5.73;;;2.57;;
13943;SDS011;7044;53.286;8.534;2023-04-03T06:12:55;3.50;;;1.90;;
13943;SDS011;7044;53.286;8.534;2023-04-03T06:15:22;7.53;;;2.37;;
13943;SDS011;7044;53.286;8.534;2023-04-03T06:17:49;4.43;;;2.20;;
13943;SDS011;7044;53.286;8.534;2023-04-03T06:20:16;5.00;;;2.17;;
13943;SDS011;7044;53.286;8.534;2023-04-03T06:22:43;5.60;;;2.13;;
13943;SDS011;7044;53.286;8.534;2023-04-03T06:25:12;7.40;;;2.27;;
13943;SDS011;7044;53.286;8.534;2023-04-03T06:27:39;7.13;;;2.30;;
13943;SDS011;7044;53.286;8.534;2023-04-03T06:30:06;4.60;;;1.83;;
13943;SDS011;7044;53.286;8.534;2023-04-03T06:32:34;5.87;;;2.20;;
13943;SDS011;7044;53.286;8.534;2023-04-03T06:35:00;4.87;;;1.87;;
13943;SDS011;7044;53.286;8.534;2023-04-03T06:37:28;8.67;;;2.30;;
13943;SDS011;7044;53.286;8.534;2023-04-03T06:39:55;6.37;;;2.37;;
13943;SDS011;7044;53.286;8.534;2023-04-03T06:42:24;8.87;;;2.50;;
13943;SDS011;7044;53.286;8.534;2023-04-03T06:44:50;6.67;;;2.07;;
13943;SDS011;7044;53.286;8.534;2023-04-03T06:47:17;6.47;;;2.27;;
13943;SDS011;7044;53.286;8.534;2023-04-03T06:49:44;5.63;;;2.23;;
13943;SDS011;7044;53.286;8.534;2023-04-03T06:52:11;7.33;;;2.23;;
13943;SDS011;7044;53.286;8.534;2023-04-03T06:54:38;5.90;;;2.47;;
13943;SDS011;7044;53.286;8.534;2023-04-03T06:57:06;4.33;;;2.20;;
13943;SDS011;7044;53.286;8.534;2023-04-03T06:59:34;5.30;;;2.37;;
13943;SDS011;7044;53.286;8.534;2023-04-03T07:02:01;3.20;;;1.80;;
13943;SDS011;7044;53.286;8.534;2023-04-03T07:04:29;6.23;;;2.10;;
13943;SDS011;7044;53.286;8.534;2023-04-03T07:06:55;6.63;;;2.20;;
13943;SDS011;7044;53.286;8.534;2023-04-03T07:09:22;6.30;;;2.40;;
13943;SDS011;7044;53.286;8.534;2023-04-03T07:11:49;7.90;;;2.40;;
13943;SDS011;7044;53.286;8.534;2023-04-03T07:14:16;4.63;;;2.20;;
13943;SDS011;7044;53.286;8.534;2023-04-03T07:16:44;6.10;;;2.10;;
13943;SDS011;7044;53.286;8.534;2023-04-03T07:19:11;9.63;;;2.27;;
13943;SDS011;7044;53.286;8.534;2023-04-03T07:21:38;5.07;;;2.10;;
13943;SDS011;7044;53.286;8.534;2023-04-03T07:24:06;5.77;;;1.97;;
13943;SDS011;7044;53.286;8.534;2023-04-03T07:26:33;6.10;;;2.00;;
13943;SDS011;7044;53.286;8.534;2023-04-03T07:29:00;8.80;;;2.20;;
13943;SDS011;7044;53.286;8.534;2023-04-03T07:31:27;3.13;;;1.90;;
13943;SDS011;7044;53.286;8.534;2023-04-03T07:33:55;7.50;;;2.00;;
13943;SDS011;7044;53.286;8.534;2023-04-03T07:36:22;3.77;;;1.40;;
13943;SDS011;7044;53.286;8.534;2023-04-03T07:38:49;6.60;;;1.93;;
13943;SDS011;7044;53.286;8.534;2023-04-03T07:41:17;6.90;;;1.93;;
13943;SDS011;7044;53.286;8.534;2023-04-03T07:43:47;5.40;;;1.90;;
13943;SDS011;7044;53.286;8.534;2023-04-03T07:46:14;3.63;;;1.70;;
13943;SDS011;7044;53.286;8.534;2023-04-03T07:48:42;5.73;;;1.60;;
13943;SDS011;7044;53.286;8.534;2023-04-03T07:51:11;4.90;;;1.43;;
13943;SDS011;7044;53.286;8.534;2023-04-03T07:53:39;5.83;;;1.90;;
13943;SDS011;7044;53.286;8.534;2023-04-03T07:56:06;5.57;;;1.83;;
13943;SDS011;7044;53.286;8.534;2023-04-03T07:58:34;3.43;;;1.37;;
13943;SDS011;7044;53.286;8.534;2023-04-03T08:01:01;4.77;;;1.30;;
13943;SDS011;7044;53.286;8.534;2023-04-03T08:03:28;2.17;;;1.17;;
13943;SDS011;7044;53.286;8.534;2023-04-03T08:05:54;2.20;;;1.00;;
13943;SDS011;7044;53.286;8.534;2023-04-03T08:08:30;4.77;;;1.30;;
13943;SDS011;7044;53.286;8.534;2023-04-03T08:10:58;2.93;;;1.10;;
13943;SDS011;7044;53.286;8.534;2023-04-03T08:13:27;5.47;;;1.30;;
13943;SDS011;7044;53.286;8.534;2023-04-03T08:15:55;3.67;;;1.10;;
13943;SDS011;7044;53.286;8.534;2023-04-03T08:18:22;1.83;;;1.00;;
13943;SDS011;7044;53.286;8.534;2023-04-03T08:20:49;1.20;;;1.03;;
13943;SDS011;7044;53.286;8.534;2023-04-03T08:23:16;4.70;;;0.77;;
13943;SDS011;7044;53.286;8.534;2023-04-03T08:25:45;2.17;;;1.20;;
13943;SDS011;7044;53.286;8.534;2023-04-03T08:28:12;2.13;;;1.17;;
13943;SDS011;7044;53.286;8.534;2023-04-03T08:30:39;3.20;;;0.90;;
13943;SDS011;7044;53.286;8.534;2023-04-03T08:33:07;1.50;;;0.87;;
13943;SDS011;7044;53.286;8.534;2023-04-03T08:35:37;2.63;;;1.13;;
13943;SDS011;7044;53.286;8.534;2023-04-03T08:38:05;3.40;;;1.00;;
13943;SDS011;7044;53.286;8.534;2023-04-03T08:40:32;1.53;;;0.97;;
13943;SDS011;7044;53.286;8.534;2023-04-03T08:43:03;1.43;;;1.10;;
13943;SDS011;7044;53.286;8.534;2023-04-03T08:45:53;1.60;;;0.90;;
13943;SDS011;7044;53.286;8.534;2023-04-03T08:48:24;2.80;;;0.90;;
13943;SDS011;7044;53.286;8.534;2023-04-03T08:50:56;0.90;;;0.80;;
13943;SDS011;7044;53.286;8.534;2023-04-03T08:53:28;0.87;;;0.60;;
13943;SDS011;7044;53.286;8.534;2023-04-03T08:55:58;1.13;;;0.80;;
13943;SDS011;7044;53.286;8.534;2023-04-03T08:58:29;0.57;;;0.57;;
13943;SDS011;7044;53.286;8.534;2023-04-03T09:00:58;2.47;;;0.80;;
13943;SDS011;7044;53.286;8.534;2023-04-03T09:03:29;0.57;;;0.37;;
13943;SDS011;7044;53.286;8.534;2023-04-03T09:05:59;0.50;;;0.50;;
13943;SDS011;7044;53.286;8.534;2023-04-03T09:08:30;0.60;;;0.60;;
13943;SDS011;7044;53.286;8.534;2023-04-03T09:11:02;2.00;;;0.90;;
13943;SDS011;7044;53.286;8.534;2023-04-03T09:13:38;1.47;;;0.77;;
13943;SDS011;7044;53.286;8.534;2023-04-03T09:16:15;1.83;;;0.63;;
13943;SDS011;7044;53.286;8.534;2023-04-03T09:18:52;2.07;;;0.87;;
13943;SDS011;7044;53.286;8.534;2023-04-03T09:21:26;3.83;;;1.00;;
13943;SDS011;7044;53.286;8.534;2023-04-03T09:23:58;2.80;;;0.80;;
13943;SDS011;7044;53.286;8.534;2023-04-03T09:26:28;1.17;;;0.60;;
13943;SDS011;7044;53.286;8.534;2023-04-03T09:29:02;2.10;;;1.00;;
13943;SDS011;7044;53.286;8.534;2023-04-03T09:31:36;2.07;;;0.80;;
13943;SDS011;7044;53.286;8.534;2023-04-03T09:34:08;1.63;;;0.70;;
13943;SDS011;7044;53.286;8.534;2023-04-03T09:36:41;1.43;;;0.90;;
13943;SDS011;7044;53.286;8.534;2023-04-03T09:39:10;1.03;;;0.77;;
13943;SDS011;7044;53.286;8.534;2023-04-03T09:41:40;0.80;;;0.70;;
13943;SDS011;7044;53.286;8.534;2023-04-03T09:44:20;3.43;;;1.13;;
13943;SDS011;7044;53.286;8.534;2023-04-03T09:46:48;2.33;;;0.80;;
13943;SDS011;7044;53.286;8.534;2023-04-03T09:49:15;3.17;;;0.97;;
13943;SDS011;7044;53.286;8.534;2023-04-03T09:51:43;0.70;;;0.70;;
13943;SDS011;7044;53.286;8.534;2023-04-03T09:54:23;3.17;;;0.90;;
13943;SDS011;7044;53.286;8.534;2023-04-03T09:56:52;2.47;;;0.53;;
13943;SDS011;7044;53.286;8.534;2023-04-03T09:59:23;1.27;;;0.53;;
13943;SDS011;7044;53.286;8.534;2023-04-03T10:01:56;1.13;;;0.77;;
13943;SDS011;7044;53.286;8.534;2023-04-03T10:04:25;3.33;;;1.03;;
13943;SDS011;7044;53.286;8.534;2023-04-03T10:07:02;2.47;;;0.90;;
13943;SDS011;7044;53.286;8.534;2023-04-03T10:09:29;0.90;;;0.73;;
13943;SDS011;7044;53.286;8.534;2023-04-03T10:11:59;0.47;;;0.47;;
13943;SDS011;7044;53.286;8.534;2023-04-03T10:14:31;2.03;;;0.83;;
13943;SDS011;7044;53.286;8.534;2023-04-03T10:17:02;3.80;;;0.90;;
13943;SDS011;7044;53.286;8.534;2023-04-03T10:19:36;1.00;;;0.80;;
13943;SDS011;7044;53.286;8.534;2023-04-03T10:22:11;3.50;;;1.00;;
13943;SDS011;7044;53.286;8.534;2023-04-03T10:24:47;1.27;;;0.80;;
13943;SDS011;7044;53.286;8.534;2023-04-03T10:27:21;1.70;;;0.80;;
13943;SDS011;7044;53.286;8.534;2023-04-03T10:29:59;1.60;;;0.80;;
13943;SDS011;7044;53.286;8.534;2023-04-03T10:32:38;4.30;;;0.97;;
13943;SDS011;7044;53.286;8.534;2023-04-03T10:35:15;1.63;;;1.00;;
13943;SDS011;7044;53.286;8.534;2023-04-03T10:37:51;0.80;;;0.77;;
13943;SDS011;7044;53.286;8.534;2023-04-03T10:40:29;2.47;;;0.70;;
13943;SDS011;7044;53.286;8.534;2023-04-03T10:43:02;0.77;;;0.63;;
13943;SDS011;7044;53.286;8.534;2023-04-03T10:45:42;1.37;;;0.90;;
13943;SDS011;7044;53.286;8.534;2023-04-03T10:48:25;1.70;;;0.90;;
13943;SDS011;7044;53.286;8.534;2023-04-03T10:51:05;1.23;;;0.70;;
13943;SDS011;7044;53.286;8.534;2023-04-03T10:53:43;0.50;;;0.50;;
13943;SDS011;7044;53.286;8.534;2023-04-03T10:56:18;3.90;;;1.20;;
13943;SDS011;7044;53.286;8.534;2023-04-03T10:58:53;2.23;;;1.00;;
13943;SDS011;7044;53.286;8.534;2023-04-03T11:01:26;1.77;;;0.87;;
13943;SDS011;7044;53.286;8.534;2023-04-03T11:03:59;0.60;;;0.60;;
13943;SDS011;7044;53.286;8.534;2023-04-03T11:06:30;1.30;;;0.80;;
13943;SDS011;7044;53.286;8.534;2023-04-03T11:09:03;2.43;;;0.77;;
13943;SDS011;7044;53.286;8.534;2023-04-03T11:11:39;1.63;;;0.83;;
13943;SDS011;7044;53.286;8.534;2023-04-03T11:14:09;1.97;;;0.77;;
13943;SDS011;7044;53.286;8.534;2023-04-03T11:16:43;0.80;;;0.50;;
13943;SDS011;7044;53.286;8.534;2023-04-03T11:19:14;2.83;;;0.70;;
13943;SDS011;7044;53.286;8.534;2023-04-03T11:21:49;1.97;;;1.17;;
13943;SDS011;7044;53.286;8.534;2023-04-03T11:24:22;2.83;;;1.17;;
13943;SDS011;7044;53.286;8.534;2023-04-03T11:26:51;1.17;;;0.80;;
13943;SDS011;7044;53.286;8.534;2023-04-03T11:29:22;1.80;;;0.77;;
13943;SDS011;7044;53.286;8.534;2023-04-03T11:32:01;1.80;;;0.90;;
13943;SDS011;7044;53.286;8.534;2023-04-03T11:34:36;1.90;;;0.90;;
13943;SDS011;7044;53.286;8.534;2023-04-03T11:37:11;1.43;;;0.90;;
13943;SDS011;7044;53.286;8.534;2023-04-03T11:39:47;1.50;;;1.13;;
13943;SDS011;7044;53.286;8.534;2023-04-03T11:42:23;4.20;;;1.07;;
13943;SDS011;7044;53.286;8.534;2023-04-03T11:47:54;4.90;;;0.90;;
13943;SDS011;7044;53.286;8.534;2023-04-03T11:50:39;1.20;;;1.00;;
13943;SDS011;7044;53.286;8.534;2023-04-03T11:56:00;3.60;;;0.90;;
13943;SDS011;7044;53.286;8.534;2023-04-03T11:58:30;0.60;;;0.60;;
13943;SDS011;7044;53.286;8.534;2023-04-03T12:01:02;1.30;;;0.83;;
13943;SDS011;7044;53.286;8.534;2023-04-03T12:06:49;2.33;;;0.87;;
13943;SDS011;7044;53.286;8.534;2023-04-03T12:09:37;1.33;;;0.83;;
13943;SDS011;7044;53.286;8.534;2023-04-03T12:12:28;1.20;;;0.80;;
13943;SDS011;7044;53.286;8.534;2023-04-03T12:15:11;0.80;;;0.80;;
13943;SDS011;7044;53.286;8.534;2023-04-03T12:17:57;1.57;;;0.90;;
13943;SDS011;7044;53.286;8.534;2023-04-03T12:23:26;1.77;;;0.80;;
13943;SDS011;7044;53.286;8.534;2023-04-03T12:25:59;1.60;;;1.10;;
13943;SDS011;7044;53.286;8.534;2023-04-03T12:28:31;0.80;;;0.80;;
13943;SDS011;7044;53.286;8.534;2023-04-03T12:31:05;0.80;;;0.77;;
13943;SDS011;7044;53.286;8.534;2023-04-03T12:33:37;1.00;;;0.80;;
13943;SDS011;7044;53.286;8.534;2023-04-03T12:36:23;1.03;;;0.70;;
13943;SDS011;7044;53.286;8.534;2023-04-03T12:39:11;6.00;;;1.00;;
13943;SDS011;7044;53.286;8.534;2023-04-03T12:41:49;1.00;;;0.90;;
13943;SDS011;7044;53.286;8.534;2023-04-03T12:44:38;1.17;;;0.83;;
13943;SDS011;7044;53.286;8.534;2023-04-03T12:47:25;1.73;;;1.03;;
13943;SDS011;7044;53.286;8.534;2023-04-03T12:49:58;2.83;;;0.80;;
13943;SDS011;7044;53.286;8.534;2023-04-03T12:52:33;3.97;;;1.00;;
13943;SDS011;7044;53.286;8.534;2023-04-03T12:55:12;2.67;;;1.13;;
13943;SDS011;7044;53.286;8.534;2023-04-03T12:57:41;0.73;;;0.73;;
13943;SDS011;7044;53.286;8.534;2023-04-03T13:03:05;2.93;;;0.90;;
13943;SDS011;7044;53.286;8.534;2023-04-03T13:05:45;1.70;;;0.80;;
13943;SDS011;7044;53.286;8.534;2023-04-03T13:08:12;0.80;;;0.63;;
13943;SDS011;7044;53.286;8.534;2023-04-03T13:10:44;1.33;;;0.70;;
13943;SDS011;7044;53.286;8.534;2023-04-03T13:13:17;1.17;;;0.90;;
13943;SDS011;7044;53.286;8.534;2023-04-03T13:15:45;2.73;;;0.90;;
13943;SDS011;7044;53.286;8.534;2023-04-03T13:18:24;1.87;;;0.90;;
13943;SDS011;7044;53.286;8.534;2023-04-03T13:20:52;1.17;;;0.90;;
13943;SDS011;7044;53.286;8.534;2023-04-03T13:23:23;1.10;;;1.00;;
13943;SDS011;7044;53.286;8.534;2023-04-03T13:25:51;3.73;;;1.07;;
13943;SDS011;7044;53.286;8.534;2023-04-03T13:28:19;2.87;;;2.03;;
13943;SDS011;7044;53.286;8.534;2023-04-03T13:31:02;2.00;;;1.30;;
13943;SDS011;7044;53.286;8.534;2023-04-03T13:33:33;2.00;;;1.00;;
13943;SDS011;7044;53.286;8.534;2023-04-03T13:36:04;1.23;;;0.80;;
13943;SDS011;7044;53.286;8.534;2023-04-03T13:38:33;1.90;;;1.03;;
13943;SDS011;7044;53.286;8.534;2023-04-03T13:41:04;1.83;;;0.83;;
13943;SDS011;7044;53.286;8.534;2023-04-03T13:43:47;1.73;;;1.07;;
13943;SDS011;7044;53.286;8.534;2023-04-03T13:46:21;2.97;;;1.10;;
13943;SDS011;7044;53.286;8.534;2023-04-03T13:48:52;6.07;;;0.93;;
13943;SDS011;7044;53.286;8.534;2023-04-03T13:51:21;1.30;;;0.90;;
13943;SDS011;7044;53.286;8.534;2023-04-03T13:53:51;2.93;;;1.47;;
13943;SDS011;7044;53.286;8.534;2023-04-03T13:56:23;1.70;;;0.97;;
13943;SDS011;7044;53.286;8.534;2023-04-03T13:58:53;1.17;;;1.03;;
13943;SDS011;7044;53.286;8.534;2023-04-03T14:01:23;3.83;;;1.00;;
13943;SDS011;7044;53.286;8.534;2023-04-03T14:03:54;2.27;;;1.10;;
13943;SDS011;7044;53.286;8.534;2023-04-03T14:06:22;2.57;;;1.20;;
13943;SDS011;7044;53.286;8.534;2023-04-03T14:08:49;2.33;;;0.83;;
13943;SDS011;7044;53.286;8.534;2023-04-03T14:11:17;1.20;;;1.03;;
13943;SDS011;7044;53.286;8.534;2023-04-03T14:13:47;2.03;;;1.07;;
13943;SDS011;7044;53.286;8.534;2023-04-03T14:16:16;1.40;;;0.80;;
13943;SDS011;7044;53.286;8.534;2023-04-03T14:18:45;2.10;;;1.27;;
13943;SDS011;7044;53.286;8.534;2023-04-03T14:21:14;1.30;;;0.90;;
13943;SDS011;7044;53.286;8.534;2023-04-03T14:23:43;2.80;;;1.07;;
13943;SDS011;7044;53.286;8.534;2023-04-03T14:26:11;1.90;;;1.10;;
13943;SDS011;7044;53.286;8.534;2023-04-03T14:28:41;1.73;;;1.00;;
13943;SDS011;7044;53.286;8.534;2023-04-03T14:31:10;1.97;;;1.20;;
13943;SDS011;7044;53.286;8.534;2023-04-03T14:33:38;1.40;;;1.00;;
13943;SDS011;7044;53.286;8.534;2023-04-03T14:36:10;1.80;;;0.83;;
13943;SDS011;7044;53.286;8.534;2023-04-03T14:38:39;3.07;;;1.30;;
13943;SDS011;7044;53.286;8.534;2023-04-03T14:41:07;2.77;;;1.30;;
13943;SDS011;7044;53.286;8.534;2023-04-03T14:43:36;1.40;;;1.00;;
13943;SDS011;7044;53.286;8.534;2023-04-03T14:46:04;3.70;;;1.13;;
13943;SDS011;7044;53.286;8.534;2023-04-03T14:48:33;1.53;;;1.00;;
13943;SDS011;7044;53.286;8.534;2023-04-03T14:51:00;4.53;;;1.23;;
13943;SDS011;7044;53.286;8.534;2023-04-03T14:53:27;1.47;;;0.83;;
13943;SDS011;7044;53.286;8.534;2023-04-03T14:55:54;1.60;;;1.17;;
13943;SDS011;7044;53.286;8.534;2023-04-03T14:58:21;1.60;;;0.97;;
13943;SDS011;7044;53.286;8.534;2023-04-03T15:00:48;2.83;;;1.23;;
13943;SDS011;7044;53.286;8.534;2023-04-03T15:03:16;2.90;;;1.33;;
13943;SDS011;7044;53.286;8.534;2023-04-03T15:05:46;2.43;;;1.30;;
13943;SDS011;7044;53.286;8.534;2023-04-03T15:08:18;1.43;;;1.07;;
13943;SDS011;7044;53.286;8.534;2023-04-03T15:10:47;2.40;;;0.97;;
13943;SDS011;7044;53.286;8.534;2023-04-03T15:13:14;0.73;;;0.73;;
13943;SDS011;7044;53.286;8.534;2023-04-03T15:15:41;1.87;;;1.07;;
13943;SDS011;7044;53.286;8.534;2023-04-03T15:18:10;1.73;;;0.97;;
13943;SDS011;7044;53.286;8.534;2023-04-03T15:20:43;0.93;;;0.80;;
13943;SDS011;7044;53.286;8.534;2023-04-03T15:23:12;1.10;;;1.00;;
13943;SDS011;7044;53.286;8.534;2023-04-03T15:25:40;3.77;;;1.00;;
13943;SDS011;7044;53.286;8.534;2023-04-03T15:28:08;2.60;;;1.33;;
13943;SDS011;7044;53.286;8.534;2023-04-03T15:30:38;2.17;;;1.10;;
13943;SDS011;7044;53.286;8.534;2023-04-03T15:33:06;1.20;;;1.00;;
13943;SDS011;7044;53.286;8.534;2023-04-03T15:35:33;2.70;;;1.13;;